Time;durP1;ratioP1;P1;durP2;ratioP2;P2;SDS_P1;SDS_P2;PMS_P1;PMS_P2;Temp;Humidity;BMP_temperature;BMP_pressure;BME280_temperature;BME280_humidity;BME280_pressure;Samples;Min_cycle;Max_cycle;Signal;HPM_P1;HPM_P2
2022/05/18 00:00:19;;;;;;;5.05;4.10;;;;;;;17.67;68.81;94842.00;5045296;28;20509;-75
2022/05/18 00:02:44;;;;;;;6.38;4.00;;;;;;;17.62;68.61;94832.31;5028595;28;20048;-75
2022/05/18 00:05:10;;;;;;;4.78;4.13;;;;;;;17.61;68.32;94829.97;5021324;28;20108;-75
2022/05/18 00:07:35;;;;;;;4.22;3.92;;;;;;;17.56;68.93;94833.41;5028266;28;20037;-75
2022/05/18 00:10:01;;;;;;;6.68;4.20;;;;;;;17.47;68.37;94834.28;5010688;28;20030;-75
2022/05/18 00:12:26;;;;;;;4.70;4.00;;;;;;;17.44;68.46;94829.56;5021260;28;20037;-76
2022/05/18 00:14:52;;;;;;;5.30;3.80;;;;;;;17.45;68.37;94831.16;5021312;28;20485;-76
2022/05/18 00:17:17;;;;;;;5.43;4.30;;;;;;;17.42;68.08;94831.69;5027906;28;20083;-75
2022/05/18 00:19:43;;;;;;;7.65;4.00;;;;;;;17.39;68.15;94827.75;5020493;28;20516;-75
2022/05/18 00:22:09;;;;;;;8.15;3.97;;;;;;;17.35;68.08;94830.16;5021631;28;20048;-75
2022/05/18 00:24:35;;;;;;;5.32;3.70;;;;;;;17.31;68.25;94826.50;5020516;28;20183;-75
2022/05/18 00:27:03;;;;;;;5.18;4.35;;;;;;;17.29;68.24;94823.38;5021590;28;20433;-74
2022/05/18 00:29:29;;;;;;;4.63;3.97;;;;;;;17.25;68.57;94827.59;5021266;28;20030;-75
2022/05/18 00:31:55;;;;;;;5.70;4.53;;;;;;;17.24;68.63;94830.47;5020672;28;20041;-75
2022/05/18 00:34:20;;;;;;;7.80;4.20;;;;;;;17.24;68.40;94835.72;5021273;28;20544;-75
2022/05/18 00:36:46;;;;;;;5.93;4.25;;;;;;;17.23;68.21;94834.16;5021139;28;20041;-75
2022/05/18 00:39:11;;;;;;;5.25;3.60;;;;;;;17.20;67.91;94835.50;5021439;28;20033;-74
2022/05/18 00:41:38;;;;;;;6.07;4.30;;;;;;;17.16;68.17;94838.94;5021321;28;20037;-75
2022/05/18 00:44:03;;;;;;;4.50;3.90;;;;;;;17.12;68.21;94843.97;5019265;28;20099;-75
2022/05/18 00:46:29;;;;;;;10.15;4.45;;;;;;;17.12;68.18;94846.59;5019652;28;20045;-75
2022/05/18 00:48:54;;;;;;;4.88;4.38;;;;;;;17.09;68.52;94836.63;5003744;28;20034;-75
2022/05/18 00:51:27;;;;;;;4.72;4.32;;;;;;;17.05;68.17;94843.47;5019824;28;20034;-75
2022/05/18 00:53:55;;;;;;;4.30;4.00;;;;;;;17.00;68.83;94846.91;5044059;28;20042;-76
2022/05/18 00:56:41;;;;;;;7.00;4.70;;;;;;;16.95;68.73;94849.56;5027785;28;20038;-75
2022/05/18 00:59:09;;;;;;;6.10;4.47;;;;;;;16.93;68.90;94856.94;5003444;28;20432;-75
2022/05/18 01:01:35;;;;;;;8.23;4.55;;;;;;;16.89;68.40;94847.22;5020716;28;20037;-76
2022/05/18 01:04:01;;;;;;;4.85;4.45;;;;;;;16.87;68.50;94849.34;5003247;28;20135;-75
2022/05/18 01:06:31;;;;;;;5.15;4.30;;;;;;;16.84;68.75;94842.78;5019302;28;20033;-75
2022/05/18 01:09:05;;;;;;;4.80;4.40;;;;;;;16.82;68.74;94842.28;5027229;28;20065;-75
2022/05/18 01:11:31;;;;;;;6.15;4.53;;;;;;;16.80;69.04;94845.19;5027270;28;20471;-76
2022/05/18 01:13:57;;;;;;;5.30;4.22;;;;;;;16.76;68.73;94841.53;5019685;28;20065;-75
2022/05/18 01:16:22;;;;;;;4.30;4.00;;;;;;;16.72;69.11;94832.59;5019866;28;20048;-75
2022/05/18 01:18:49;;;;;;;12.82;4.05;;;;;;;16.71;68.99;94846.78;5019207;28;20080;-75
2022/05/18 01:21:14;;;;;;;8.63;4.68;;;;;;;16.67;69.08;94837.88;5002599;28;20501;-75
2022/05/18 01:23:55;;;;;;;8.07;4.20;;;;;;;16.63;69.46;94828.94;5027129;28;20030;-75
2022/05/18 01:26:46;;;;;;;6.25;4.88;;;;;;;16.63;69.25;94826.31;5002718;28;20068;-75
2022/05/18 01:29:12;;;;;;;5.95;4.60;;;;;;;16.60;69.26;94826.06;5020087;28;20056;-75
2022/05/18 01:32:00;;;;;;;4.85;4.45;;;;;;;16.59;69.19;94821.84;5021338;28;20489;-75
2022/05/18 01:34:28;;;;;;;11.57;4.57;;;;;;;16.57;69.01;94816.09;5027831;28;20066;-75
2022/05/18 01:36:53;;;;;;;5.40;4.47;;;;;;;16.52;69.33;94824.78;5018810;28;20481;-75
2022/05/18 01:39:44;;;;;;;7.88;4.70;;;;;;;16.51;69.33;94810.06;5019657;28;20049;-75
2022/05/18 01:42:27;;;;;;;5.03;4.50;;;;;;;16.47;69.37;94807.22;5012032;28;20123;-75
2022/05/18 01:44:52;;;;;;;5.07;4.57;;;;;;;16.47;69.72;94806.41;5040736;28;20044;-75
2022/05/18 01:47:18;;;;;;;5.93;4.72;;;;;;;16.50;69.35;94805.88;5019891;28;20033;-75
2022/05/18 01:49:44;;;;;;;4.70;4.30;;;;;;;16.49;69.56;94809.56;5043518;28;20092;-75
2022/05/18 01:52:10;;;;;;;4.40;4.00;;;;;;;16.51;69.48;94804.81;4996535;28;20040;-74
2022/05/18 01:54:46;;;;;;;6.88;4.70;;;;;;;16.54;69.14;94799.03;5031962;28;20049;-75
2022/05/18 01:57:12;;;;;;;4.70;4.22;;;;;;;16.52;69.42;94799.31;5031019;28;20050;-74
2022/05/18 01:59:37;;;;;;;6.80;4.88;;;;;;;16.55;69.25;94795.34;5027802;28;20038;-75
2022/05/18 02:02:04;;;;;;;8.30;4.22;;;;;;;16.54;68.88;94804.28;5026908;28;20485;-75
2022/05/18 02:04:32;;;;;;;4.53;4.15;;;;;;;16.49;68.83;94806.94;5020581;28;20030;-75
2022/05/18 02:06:59;;;;;;;13.00;4.45;;;;;;;16.44;68.63;94802.50;5042158;28;20038;-75
2022/05/18 02:09:25;;;;;;;4.53;4.10;;;;;;;16.43;68.03;94800.13;5019967;28;20042;-74
2022/05/18 02:11:50;;;;;;;4.18;3.92;;;;;;;16.36;67.94;94799.63;5018956;28;20033;-74
2022/05/18 02:14:16;;;;;;;4.22;3.92;;;;;;;16.35;67.77;94798.06;5020100;28;20046;-75
2022/05/18 02:16:42;;;;;;;4.70;3.80;;;;;;;16.32;67.84;94782.84;5019232;28;20410;-75
2022/05/18 02:19:08;;;;;;;4.50;3.72;;;;;;;16.29;67.63;94799.13;5024081;28;20034;-75
2022/05/18 02:21:33;;;;;;;4.45;3.42;;;;;;;16.27;67.77;94806.47;5023154;28;20124;-75
2022/05/18 02:23:58;;;;;;;3.60;3.25;;;;;;;16.25;67.50;94798.09;5018269;28;20036;-74
2022/05/18 02:26:24;;;;;;;3.80;3.45;;;;;;;16.26;67.65;94797.81;5020077;28;20801;-75
2022/05/18 02:28:49;;;;;;;3.33;3.13;;;;;;;16.30;67.64;94800.72;5019710;28;20037;-75
2022/05/18 02:31:15;;;;;;;4.20;3.80;;;;;;;16.34;67.25;94799.13;5017985;28;20847;-76
2022/05/18 02:33:40;;;;;;;9.80;3.28;;;;;;;16.40;67.58;94792.78;5001611;28;20034;-74
2022/05/18 02:36:10;;;;;;;6.70;3.03;;;;;;;16.47;66.80;94795.91;5020616;28;20034;-75
2022/05/18 02:38:36;;;;;;;2.92;2.72;;;;;;;16.50;66.97;94798.00;5018737;28;20100;-74
2022/05/18 02:41:02;;;;;;;3.83;3.20;;;;;;;16.57;67.17;94806.38;5019192;28;20526;-74
2022/05/18 02:43:27;;;;;;;4.53;2.97;;;;;;;16.64;66.54;94796.38;5019673;28;20529;-74
2022/05/18 02:46:16;;;;;;;4.85;2.88;;;;;;;16.72;66.29;94795.81;5018927;28;20504;-74
2022/05/18 02:48:42;;;;;;;5.30;2.90;;;;;;;16.73;65.97;94799.25;5017805;28;20133;-75
2022/05/18 02:51:08;;;;;;;5.97;3.72;;;;;;;16.79;65.79;94798.97;5019629;28;20550;-75
2022/05/18 02:53:33;;;;;;;3.75;3.05;;;;;;;16.82;65.68;94794.22;5020073;28;20490;-75
2022/05/18 02:56:08;;;;;;;8.25;3.05;;;;;;;16.85;65.47;94796.28;5019348;28;20049;-74
2022/05/18 02:58:48;;;;;;;3.13;2.92;;;;;;;16.87;65.42;94807.31;5017130;28;20054;-75
2022/05/18 03:01:19;;;;;;;3.42;3.13;;;;;;;16.88;65.42;94806.25;5026155;28;20057;-74
2022/05/18 03:03:45;;;;;;;3.60;3.20;;;;;;;16.86;65.75;94803.13;5010135;28;20030;-75
2022/05/18 03:06:11;;;;;;;4.13;3.30;;;;;;;16.90;65.68;94812.03;5019406;28;20055;-75
2022/05/18 03:08:51;;;;;;;3.72;3.42;;;;;;;16.94;65.83;94810.44;5001065;28;20057;-75
2022/05/18 03:11:18;;;;;;;4.15;3.10;;;;;;;17.01;65.33;94824.06;5009345;28;20045;-75
2022/05/18 03:13:43;;;;;;;5.22;3.08;;;;;;;17.01;65.54;94821.44;5002069;28;20033;-75
2022/05/18 03:16:09;;;;;;;3.92;2.90;;;;;;;17.05;65.24;94819.81;5017473;28;20038;-76
2022/05/18 03:18:35;;;;;;;5.53;3.55;;;;;;;17.10;65.18;94822.44;5042124;28;20155;-76
2022/05/18 03:23:45;;;;;;;9.30;4.10;;;;;;;17.18;65.09;94821.84;5018650;28;20068;-75
2022/05/18 03:26:14;;;;;;;4.10;3.80;;;;;;;17.26;64.37;94823.91;5017698;28;20401;-75
2022/05/18 03:28:42;;;;;;;5.10;4.13;;;;;;;17.32;64.13;94822.81;5042671;28;20057;-75
2022/05/18 03:31:07;;;;;;;8.68;4.55;;;;;;;17.38;64.19;94826.19;4985361;28;20092;-74
2022/05/18 03:33:34;;;;;;;4.38;4.07;;;;;;;17.40;64.43;94819.59;5017210;28;20030;-75
2022/05/18 03:35:59;;;;;;;5.57;4.43;;;;;;;17.47;64.21;94829.03;5001740;28;20038;-75
2022/05/18 03:38:25;;;;;;;5.93;4.80;;;;;;;17.49;64.36;94832.16;5042549;28;20042;-75
2022/05/18 03:40:50;;;;;;;6.22;4.88;;;;;;;17.55;64.60;94836.31;5001128;28;20588;-75
2022/05/18 03:43:17;;;;;;;8.82;4.90;;;;;;;17.58;64.57;94835.78;5026044;28;20037;-75
2022/05/18 03:45:42;;;;;;;5.00;4.57;;;;;;;17.58;64.50;94841.06;5029323;28;20125;-75
2022/05/18 03:48:09;;;;;;;10.20;5.72;;;;;;;17.66;64.30;94845.72;5045704;28;20044;-74
2022/05/18 03:50:37;;;;;;;7.15;5.60;;;;;;;17.67;64.31;94844.66;5021610;28;20053;-75
2022/05/18 03:53:02;;;;;;;6.88;5.60;;;;;;;17.73;63.90;94848.81;5020885;28;20034;-75
2022/05/18 03:55:28;;;;;;;7.43;5.75;;;;;;;17.76;63.92;94848.31;5020230;28;20041;-74
2022/05/18 03:57:53;;;;;;;6.30;5.70;;;;;;;17.83;63.88;94847.97;5020426;28;20389;-74
2022/05/18 04:00:19;;;;;;;6.13;5.47;;;;;;;17.91;63.50;94845.53;5021670;28;20087;-74
2022/05/18 04:02:47;;;;;;;5.45;4.80;;;;;;;17.99;62.96;94842.31;5004330;28;20034;-75
2022/05/18 04:05:14;;;;;;;6.55;5.15;;;;;;;18.04;63.08;94845.94;5020968;28;20497;-76
2022/05/18 04:07:39;;;;;;;8.75;5.07;;;;;;;18.12;62.78;94847.97;5028263;28;20037;-74
2022/05/18 04:10:06;;;;;;;8.45;4.50;;;;;;;18.22;62.21;94850.50;5003780;28;20018;-75
2022/05/18 04:12:31;;;;;;;9.85;5.05;;;;;;;18.27;62.18;94850.47;5019845;28;20426;-75
2022/05/18 04:14:57;;;;;;;5.47;4.97;;;;;;;18.36;62.10;94851.41;5028407;28;20034;-76
2022/05/18 04:17:23;;;;;;;8.00;4.47;;;;;;;18.47;62.26;94862.63;5021162;28;20042;-74
2022/05/18 04:19:49;;;;;;;13.15;5.35;;;;;;;18.54;62.19;94858.59;5028332;28;20040;-75
2022/05/18 04:22:15;;;;;;;11.07;4.65;;;;;;;18.68;62.26;94863.22;5019763;28;20029;-75
2022/05/18 04:24:40;;;;;;;5.53;5.03;;;;;;;18.75;61.84;94864.47;5021465;28;20029;-75
2022/05/18 04:27:08;;;;;;;5.72;5.05;;;;;;;18.79;61.60;94860.19;5022479;28;20038;-76
2022/05/18 04:29:34;;;;;;;5.40;4.90;;;;;;;18.84;61.49;94859.34;5020615;28;20034;-75
2022/05/18 04:31:59;;;;;;;6.07;4.65;;;;;;;18.97;61.08;94857.88;5019009;28;20045;-74
2022/05/18 04:34:25;;;;;;;5.38;4.88;;;;;;;19.08;60.68;94856.69;5019618;28;20045;-75
2022/05/18 04:36:51;;;;;;;6.72;4.60;;;;;;;19.12;60.06;94847.91;5002861;28;20462;-74
2022/05/18 04:39:16;;;;;;;7.22;4.90;;;;;;;19.14;59.76;94856.31;5020697;28;20113;-74
2022/05/18 04:41:42;;;;;;;5.63;4.97;;;;;;;19.15;60.37;94857.09;5019440;28;20045;-73
2022/05/18 04:44:07;;;;;;;8.52;5.90;;;;;;;19.10;60.49;94859.81;5026932;28;20034;-75
2022/05/18 04:46:32;;;;;;;10.00;6.80;;;;;;;19.04;60.71;94853.84;5020741;28;20038;-75
2022/05/18 04:48:58;;;;;;;9.23;5.93;;;;;;;19.01;60.55;94851.75;5022041;28;20087;-75
2022/05/18 04:51:41;;;;;;;6.00;5.50;;;;;;;19.03;60.45;94862.00;5023898;28;20565;-75
2022/05/18 04:54:06;;;;;;;6.45;5.70;;;;;;;19.05;61.08;94860.69;5021934;28;20119;-75
2022/05/18 04:56:32;;;;;;;6.65;5.97;;;;;;;19.14;60.52;94861.59;5043962;28;20502;-75
2022/05/18 04:58:57;;;;;;;8.02;6.32;;;;;;;19.22;60.25;94864.69;5020723;28;20547;-75
2022/05/18 05:01:24;;;;;;;6.38;5.75;;;;;;;19.24;60.23;94865.19;5020709;28;20034;-75
2022/05/18 05:03:50;;;;;;;6.13;5.65;;;;;;;19.23;60.42;94874.16;5021130;28;20087;-75
2022/05/18 05:06:15;;;;;;;7.47;6.05;;;;;;;19.22;60.60;94862.03;5021091;28;20033;-77
2022/05/18 05:08:40;;;;;;;7.38;6.68;;;;;;;19.18;60.95;94862.59;5017417;28;20121;-75
2022/05/18 05:11:06;;;;;;;13.63;6.53;;;;;;;19.17;61.12;94866.28;5019382;28;20037;-75
2022/05/18 05:13:33;;;;;;;6.43;5.82;;;;;;;19.06;60.80;94872.00;5018930;28;20041;-75
2022/05/18 05:16:05;;;;;;;10.10;6.90;;;;;;;18.98;61.72;94864.72;5020474;28;20567;-75
2022/05/18 05:18:31;;;;;;;17.50;6.78;;;;;;;18.92;61.96;94869.28;5003613;28;20026;-75
2022/05/18 05:20:56;;;;;;;7.80;7.10;;;;;;;18.91;61.97;94882.72;5021193;28;20129;-75
2022/05/18 05:23:24;;;;;;;8.52;7.53;;;;;;;18.84;62.33;94885.69;5020136;28;20029;-75
2022/05/18 05:25:52;;;;;;;12.82;7.13;;;;;;;18.83;62.71;94882.28;5043745;28;20049;-75
2022/05/18 05:28:18;;;;;;;7.55;6.85;;;;;;;18.78;62.41;94884.19;5020588;28;20132;-76
2022/05/18 05:30:43;;;;;;;7.13;6.43;;;;;;;18.74;63.12;94885.81;5026834;28;20444;-76
2022/05/18 05:33:09;;;;;;;7.60;6.90;;;;;;;18.78;63.21;94889.47;5043805;28;20037;-76
2022/05/18 05:35:34;;;;;;;10.20;6.90;;;;;;;18.80;63.59;94892.59;5003252;28;20092;-75
2022/05/18 05:38:00;;;;;;;7.20;6.60;;;;;;;18.80;63.63;94898.66;5020454;28;20041;-75
2022/05/18 05:40:25;;;;;;;11.10;6.47;;;;;;;18.81;64.19;94899.44;5019975;28;20121;-76
2022/05/18 05:42:50;;;;;;;7.78;7.00;;;;;;;18.82;64.38;94907.06;5019873;28;20470;-75
2022/05/18 05:45:16;;;;;;;10.10;7.15;;;;;;;18.77;64.99;94896.56;5019956;28;20045;-77
2022/05/18 05:47:41;;;;;;;7.25;6.47;;;;;;;18.72;65.52;94911.66;5020233;28;20057;-77
2022/05/18 05:52:35;;;;;;;8.68;7.22;;;;;;;18.56;66.09;94919.69;5002939;28;20054;-75
2022/05/18 05:55:00;;;;;;;11.13;7.30;;;;;;;18.53;65.95;94914.97;4999439;28;20042;-75
2022/05/18 05:57:26;;;;;;;7.57;6.75;;;;;;;18.51;65.97;94922.34;5000695;28;20042;-75
2022/05/18 05:59:51;;;;;;;8.25;7.32;;;;;;;18.45;66.21;94920.06;4982561;28;20429;-75
2022/05/18 06:02:17;;;;;;;8.02;6.82;;;;;;;18.38;66.43;94925.63;5014139;23;20057;-75
2022/05/18 06:04:43;;;;;;;10.48;7.35;;;;;;;18.38;67.25;94925.63;5010047;28;20034;-75
2022/05/18 06:07:09;;;;;;;9.57;8.00;;;;;;;18.41;67.19;94916.41;5007780;28;20041;-75
2022/05/18 06:09:34;;;;;;;8.65;7.60;;;;;;;18.37;67.64;94921.44;5009768;28;20030;-75
2022/05/18 06:12:00;;;;;;;10.40;8.40;;;;;;;18.38;68.28;94923.00;5009650;28;20528;-75
2022/05/18 06:14:25;;;;;;;8.95;6.97;;;;;;;18.34;67.90;94927.25;5009732;28;20033;-75
2022/05/18 06:16:51;;;;;;;15.57;7.82;;;;;;;18.23;68.59;94923.16;4992267;28;20498;-75
2022/05/18 06:19:16;;;;;;;12.02;7.75;;;;;;;18.16;68.79;94931.34;5008612;28;20088;-75
2022/05/18 06:21:42;;;;;;;16.55;7.07;;;;;;;18.06;68.49;94935.91;4975915;28;20109;-75
2022/05/18 06:24:08;;;;;;;7.95;6.60;;;;;;;17.94;69.08;94936.28;5009035;28;20037;-76
2022/05/18 06:26:34;;;;;;;9.20;7.18;;;;;;;17.81;70.05;94935.06;5009652;28;20064;-75
2022/05/18 06:28:59;;;;;;;9.48;6.78;;;;;;;17.84;70.26;94939.75;5008878;28;20076;-75
2022/05/18 06:31:25;;;;;;;11.13;7.03;;;;;;;17.85;69.70;94943.97;5008419;28;20172;-76
2022/05/18 06:33:50;;;;;;;7.53;6.88;;;;;;;17.81;70.35;94939.53;5007757;28;20076;-75
2022/05/18 06:36:16;;;;;;;7.47;6.63;;;;;;;17.86;70.18;94953.41;5009408;28;20033;-75
2022/05/18 06:38:41;;;;;;;8.27;7.53;;;;;;;17.92;70.05;94949.72;5009421;28;20833;-74
2022/05/18 06:41:22;;;;;;;9.75;7.47;;;;;;;17.96;69.40;94937.56;4991789;28;20034;-75
2022/05/18 06:43:54;;;;;;;13.60;6.43;;;;;;;17.96;69.32;94948.09;5009544;28;20037;-78
2022/05/18 06:46:20;;;;;;;7.28;6.53;;;;;;;18.02;69.50;94951.47;4997127;28;20048;-79
2022/05/18 06:48:46;;;;;;;17.35;13.05;;;;;;;18.10;69.54;94956.16;5010083;28;20593;-77
2022/05/18 06:51:12;;;;;;;16.17;11.15;;;;;;;18.14;69.49;94964.28;5009940;28;20050;-78
2022/05/18 06:53:38;;;;;;;12.05;10.57;;;;;;;18.21;68.79;94959.47;5005246;28;20030;-79
2022/05/18 06:56:04;;;;;;;16.40;10.82;;;;;;;18.26;67.99;94959.47;5022829;28;21766;-78
2022/05/18 06:58:30;;;;;;;15.32;10.75;;;;;;;18.37;68.11;94966.19;4999201;28;20029;-77
2022/05/18 07:00:56;;;;;;;16.08;6.40;;;;;;;18.50;67.78;94968.19;4992160;28;20060;-76
2022/05/18 07:03:21;;;;;;;8.30;6.07;;;;;;;18.57;67.42;94967.88;5008736;28;20037;-75
2022/05/18 07:05:47;;;;;;;9.05;6.30;;;;;;;18.70;67.29;94971.72;5007941;28;20034;-76
2022/05/18 07:08:13;;;;;;;10.48;7.05;;;;;;;18.88;66.74;94963.91;5008880;28;20124;-75
2022/05/18 07:10:39;;;;;;;7.88;6.22;;;;;;;19.07;65.84;94961.34;4967193;28;20056;-76
2022/05/18 07:13:08;;;;;;;11.20;6.07;;;;;;;19.16;64.80;94959.63;4966951;28;20042;-75
2022/05/18 07:15:36;;;;;;;11.68;7.53;;;;;;;19.29;64.80;94966.06;5008573;28;20038;-76
2022/05/18 07:18:02;;;;;;;10.95;8.68;;;;;;;19.46;64.03;94968.25;5008053;28;20123;-77
2022/05/18 07:20:28;;;;;;;13.80;7.97;;;;;;;19.54;63.71;94962.38;5010631;28;20173;-77
2022/05/18 07:22:53;;;;;;;6.95;6.30;;;;;;;19.60;63.24;94973.63;5013113;28;20476;-75
2022/05/18 07:25:20;;;;;;;6.60;6.00;;;;;;;19.59;63.44;94966.78;5012806;28;20117;-75
2022/05/18 07:27:46;;;;;;;11.02;7.55;;;;;;;19.63;62.85;94973.84;4994300;28;20034;-75
2022/05/18 07:30:13;;;;;;;9.77;7.20;;;;;;;19.76;62.98;94973.13;4994749;28;20034;-76
2022/05/18 07:32:39;;;;;;;10.32;9.30;;;;;;;19.83;62.34;94982.53;5010835;28;20494;-75
2022/05/18 07:35:04;;;;;;;33.17;25.13;;;;;;;19.88;62.35;94985.91;5011230;28;20045;-78
2022/05/18 07:37:30;;;;;;;25.25;22.27;;;;;;;19.96;62.28;94987.13;5012298;28;20117;-76
2022/05/18 07:39:56;;;;;;;14.98;13.40;;;;;;;19.95;61.92;94985.56;5012023;28;20080;-75
2022/05/18 07:42:21;;;;;;;10.27;9.10;;;;;;;20.11;61.75;94994.03;5012028;28;20648;-75
2022/05/18 07:44:47;;;;;;;9.60;8.45;;;;;;;20.17;61.91;94998.94;5011997;28;20046;-75
2022/05/18 07:47:12;;;;;;;7.35;6.55;;;;;;;20.30;61.41;94997.44;4993812;28;21028;-75
2022/05/18 07:49:40;;;;;;;8.55;6.38;;;;;;;20.41;61.14;95000.72;5010846;28;20165;-75
2022/05/18 07:52:05;;;;;;;7.70;6.30;;;;;;;20.48;60.57;95001.13;5009666;28;20058;-75
2022/05/18 07:54:31;;;;;;;19.92;7.20;;;;;;;20.58;60.75;94998.34;5011805;28;20033;-75
2022/05/18 07:56:56;;;;;;;8.18;7.38;;;;;;;20.80;59.77;94993.19;5011781;28;20033;-75
2022/05/18 07:59:22;;;;;;;7.63;6.80;;;;;;;21.05;58.49;94999.88;5002440;28;20030;-75
2022/05/18 08:01:47;;;;;;;10.25;9.15;;;;;;;21.29;57.97;95007.66;5010549;28;20045;-75
2022/05/18 08:04:12;;;;;;;13.32;9.68;;;;;;;21.43;57.55;94999.72;5010784;28;20029;-75
2022/05/18 08:06:38;;;;;;;12.82;8.80;;;;;;;21.53;56.75;95002.97;5010424;28;20060;-74
2022/05/18 08:09:04;;;;;;;13.60;7.47;;;;;;;21.51;55.84;94999.81;5001833;28;20036;-75
2022/05/18 08:15:05;;;;;;;12.48;8.80;;;;;;;21.51;56.62;95004.34;4996940;28;20143;-75
2022/05/18 08:17:17;;;;;;;8.00;7.20;;;;;;;21.34;56.22;95007.59;5011345;28;20037;-75
2022/05/18 08:19:42;;;;;;;18.85;13.15;;;;;;;21.06;57.15;95008.59;5010397;28;20084;-75
2022/05/18 08:22:08;;;;;;;15.77;10.38;;;;;;;20.90;57.33;95016.81;4992888;28;20543;-75
2022/05/18 08:24:36;;;;;;;7.70;7.00;;;;;;;20.86;57.20;95018.47;5010037;28;20033;-75
2022/05/18 08:27:05;;;;;;;15.57;12.57;;;;;;;21.09;58.12;95015.94;5010146;28;20631;-74
2022/05/18 08:29:30;;;;;;;22.70;14.00;;;;;;;21.36;57.04;95013.34;5010117;28;20628;-75
2022/05/18 08:31:56;;;;;;;10.88;7.30;;;;;;;21.42;55.54;95017.47;5011141;28;20037;-75
2022/05/18 08:34:21;;;;;;;8.25;6.53;;;;;;;21.67;54.85;95018.03;4993682;28;20038;-75
2022/05/18 08:36:47;;;;;;;9.95;8.48;;;;;;;21.98;54.92;95013.66;5011183;28;20038;-75
2022/05/18 08:39:13;;;;;;;11.00;6.90;;;;;;;22.25;52.79;95007.50;5009977;28;20926;-77
2022/05/18 08:41:46;;;;;;;9.15;6.32;;;;;;;22.57;51.59;95009.13;4976321;28;20022;-75
2022/05/18 08:44:25;;;;;;;9.15;6.15;;;;;;;22.95;50.67;95003.47;5009503;28;20041;-75
2022/05/18 08:47:00;;;;;;;6.13;5.50;;;;;;;23.37;50.31;95004.72;5010008;28;20068;-75
2022/05/18 08:49:39;;;;;;;16.17;5.75;;;;;;;23.68;50.04;94996.72;4986003;28;20033;-75
2022/05/18 08:52:42;;;;;;;14.60;6.13;;;;;;;23.67;48.76;95003.13;5009394;28;20033;-76
2022/05/18 08:55:22;;;;;;;6.55;5.65;;;;;;;23.63;49.23;94996.88;5009594;28;20124;-75
2022/05/18 08:57:48;;;;;;;11.05;5.80;;;;;;;23.58;48.86;94994.34;5001206;28;20100;-74
2022/05/18 09:00:27;;;;;;;5.47;4.97;;;;;;;23.57;48.74;94988.25;5010889;28;20049;-75
2022/05/18 09:02:59;;;;;;;9.73;5.55;;;;;;;23.69;48.45;94985.00;4978051;28;20103;-75
2022/05/18 09:05:38;;;;;;;14.57;5.65;;;;;;;23.64;48.96;94983.28;5009373;28;20040;-75
2022/05/18 09:08:15;;;;;;;7.32;5.03;;;;;;;23.46;49.28;94976.34;5008753;28;20095;-75
2022/05/18 09:10:52;;;;;;;12.50;5.97;;;;;;;23.30;50.03;94970.69;5024055;28;20501;-75
2022/05/18 09:13:18;;;;;;;9.13;4.63;;;;;;;23.22;48.57;94968.78;4994220;28;20038;-75
2022/05/18 09:16:25;;;;;;;11.07;4.20;;;;;;;23.49;47.78;94980.25;5009368;28;20524;-75
2022/05/18 09:19:07;;;;;;;6.07;4.13;;;;;;;23.91;48.31;94976.13;5008543;28;20050;-75
2022/05/18 09:22:01;;;;;;;13.43;4.57;;;;;;;24.13;46.90;94961.91;4999681;28;20034;-75
2022/05/18 09:24:33;;;;;;;5.43;4.00;;;;;;;24.32;45.55;94959.72;5000939;28;20544;-75
2022/05/18 09:27:17;;;;;;;8.17;3.77;;;;;;;24.29;44.03;94947.09;5008564;28;20060;-74
2022/05/18 09:30:05;;;;;;;4.95;3.80;;;;;;;24.41;43.96;94957.84;5009192;28;20285;-75
2022/05/18 09:32:48;;;;;;;4.97;3.25;;;;;;;24.24;43.75;94955.16;5004659;28;20052;-79
2022/05/18 09:35:51;;;;;;;12.88;3.75;;;;;;;24.43;43.87;94945.03;5018871;28;20034;-80
2022/05/18 09:38:36;;;;;;;7.13;3.20;;;;;;;24.35;43.71;94964.41;5015983;28;20038;-80
2022/05/18 09:41:07;;;;;;;9.05;3.42;;;;;;;24.45;44.27;94953.47;4998703;28;20069;-80
2022/05/18 09:43:53;;;;;;;6.13;3.28;;;;;;;24.43;43.51;94953.00;5017608;28;20079;-80
2022/05/18 09:46:20;;;;;;;11.88;3.55;;;;;;;24.21;44.08;94945.16;5015662;28;20141;-80
2022/05/18 09:48:57;;;;;;;6.75;3.60;;;;;;;24.06;44.87;94945.66;5003377;28;20056;-79
2022/05/18 09:51:24;;;;;;;10.70;4.60;;;;;;;23.80;44.79;94958.94;4987823;28;20045;-80
2022/05/18 09:53:50;;;;;;;10.50;4.25;;;;;;;23.63;44.99;94951.75;5002887;28;20030;-80
2022/05/18 09:56:24;;;;;;;12.32;6.00;;;;;;;23.27;45.78;94942.13;4999086;28;20056;-80
2022/05/18 09:58:49;;;;;;;4.78;3.58;;;;;;;22.98;46.18;94950.59;5017655;28;20041;-80
2022/05/18 10:09:28;;;;;;;3.90;3.50;;;;;;;22.02;47.25;94966.19;5018009;28;20041;-79
2022/05/18 10:11:54;;;;;;;9.20;2.83;;;;;;;21.81;47.30;94976.44;4997463;28;20087;-79
2022/05/18 10:14:34;;;;;;;13.00;3.70;;;;;;;21.57;48.29;94972.16;4993478;28;20077;-80
2022/05/18 10:17:05;;;;;;;7.53;3.33;;;;;;;21.45;49.63;94971.88;5014054;28;20103;-79
2022/05/18 10:19:36;;;;;;;7.00;3.40;;;;;;;21.19;49.80;94991.97;5002270;28;20042;-80
2022/05/18 10:22:06;;;;;;;9.52;2.85;;;;;;;20.93;49.57;94989.78;4977256;28;20025;-80
2022/05/18 10:24:50;;;;;;;5.03;3.05;;;;;;;20.70;52.62;94995.25;5002259;28;20042;-80
2022/05/18 10:27:16;;;;;;;4.68;3.20;;;;;;;20.50;53.49;95002.44;5025547;28;20029;-79
2022/05/18 10:29:42;;;;;;;5.78;3.13;;;;;;;20.16;54.19;95002.66;5018618;28;20505;-79
2022/05/18 10:32:32;;;;;;;4.53;3.22;;;;;;;19.97;55.10;95028.28;5017015;28;20037;-80
2022/05/18 10:34:58;;;;;;;4.03;2.80;;;;;;;19.71;56.16;95043.69;4996810;28;20445;-79
2022/05/18 10:37:38;;;;;;;7.82;2.88;;;;;;;19.31;57.69;95050.94;4999981;28;20033;-79
2022/05/18 10:40:13;;;;;;;2.65;2.30;;;;;;;19.15;57.85;95058.22;5012123;28;20117;-80
2022/05/18 10:42:44;;;;;;;2.95;2.67;;;;;;;19.01;58.87;95057.31;5015649;28;20041;-79
2022/05/18 10:45:33;;;;;;;8.07;2.80;;;;;;;18.69;60.25;95065.75;5015594;28;20037;-78
2022/05/18 10:48:16;;;;;;;3.83;1.85;;;;;;;18.57;58.48;95079.28;5005046;28;20034;-77
2022/05/18 10:50:42;;;;;;;4.97;2.30;;;;;;;18.26;61.05;95077.91;5021146;28;20026;-78
2022/05/18 10:53:17;;;;;;;3.85;2.03;;;;;;;18.11;61.08;95081.41;5019146;28;20033;-79
2022/05/18 10:56:10;;;;;;;4.95;2.03;;;;;;;18.06;60.09;95083.28;5022119;28;20038;-78
2022/05/18 10:58:47;;;;;;;11.60;2.40;;;;;;;18.12;61.30;95087.47;4994812;28;20065;-78
2022/05/18 11:01:22;;;;;;;8.60;3.28;;;;;;;18.25;59.56;95089.50;5004745;28;20061;-79
2022/05/18 11:03:53;;;;;;;5.15;2.70;;;;;;;18.43;59.27;95088.84;5020568;28;20493;-79
2022/05/18 11:06:22;;;;;;;4.32;2.70;;;;;;;18.69;57.53;95086.84;5019870;28;20623;-78
2022/05/18 11:08:48;;;;;;;2.75;2.13;;;;;;;18.99;56.91;95087.66;5021555;28;20038;-80
2022/05/18 11:11:33;;;;;;;2.72;2.20;;;;;;;19.26;56.20;95095.03;5020504;28;20033;-77
2022/05/18 11:13:58;;;;;;;2.08;1.50;;;;;;;19.42;54.43;95109.66;5024467;28;20030;-78
2022/05/18 11:16:46;;;;;;;1.20;1.20;;;;;;;19.52;52.43;95103.47;5021578;28;20029;-78
2022/05/18 11:19:24;;;;;;;1.85;1.48;;;;;;;19.40;53.52;95112.56;5019432;28;20034;-78
2022/05/18 11:22:22;;;;;;;1.60;1.50;;;;;;;19.16;54.91;95117.78;5019087;28;20468;-78
2022/05/18 11:25:13;;;;;;;2.78;1.33;;;;;;;18.99;55.96;95117.44;5022282;28;20037;-78
2022/05/18 11:27:49;;;;;;;1.88;1.38;;;;;;;18.64;57.96;95117.72;5020642;28;20034;-78
2022/05/18 11:30:38;;;;;;;2.22;1.45;;;;;;;18.58;57.74;95123.00;5020492;28;20038;-78
2022/05/18 11:33:09;;;;;;;1.38;1.27;;;;;;;18.59;58.20;95116.66;5036237;28;20061;-78
2022/05/18 11:36:00;;;;;;;8.15;1.58;;;;;;;18.65;57.96;95127.19;5012620;28;20169;-83
2022/05/18 11:38:38;;;;;;;9.82;1.20;;;;;;;18.47;55.61;95126.75;5018381;28;20068;-79
2022/05/18 11:41:06;;;;;;;0.73;0.70;;;;;;;18.49;54.18;95129.88;5018361;28;20065;-78
2022/05/18 11:43:59;;;;;;;1.05;0.85;;;;;;;18.62;54.75;95133.75;5019207;28;20117;-80
2022/05/18 11:46:49;;;;;;;1.65;1.20;;;;;;;18.45;57.61;95147.28;5020621;28;20110;-78
2022/05/18 11:49:23;;;;;;;1.75;1.10;;;;;;;17.93;57.71;95163.63;5019279;28;20046;-78
2022/05/18 11:52:02;;;;;;;8.68;1.30;;;;;;;17.62;59.59;95158.41;5020976;28;20026;-79
2022/05/18 11:54:52;;;;;;;1.40;1.30;;;;;;;17.57;60.34;95176.03;5021328;28;20061;-79
2022/05/18 11:57:36;;;;;;;1.02;1.00;;;;;;;17.65;59.09;95168.38;5037526;28;20038;-80
2022/05/18 12:00:12;;;;;;;3.85;1.00;;;;;;;17.64;57.91;95166.03;5024356;28;20034;-81